Time;durP1;ratioP1;P1;durP2;ratioP2;P2;SDS_P1;SDS_P2;PMS_P1;PMS_P2;Temp;Humidity;BMP_temperature;BMP_pressure;BME280_temperature;BME280_humidity;BME280_pressure;Samples;Min_cycle;Max_cycle;Signal;HPM_P1;HPM_P2
2022/06/09 00:00:53;;;;;;;7.32;2.58;;;14.80;99.90;;;;;;5034621;28;20461;-61
2022/06/09 00:03:24;;;;;;;9.18;2.50;;;14.80;99.90;;;;;;5033369;28;20072;-60
2022/06/09 00:05:50;;;;;;;5.07;2.30;;;14.80;99.90;;;;;;5035989;28;20056;-60
2022/06/09 00:08:16;;;;;;;14.88;3.92;;;14.80;99.90;;;;;;5036910;28;20060;-60
2022/06/09 00:10:49;;;;;;;8.93;2.45;;;14.80;99.90;;;;;;5032980;28;20381;-61
2022/06/09 00:13:14;;;;;;;8.32;2.55;;;14.70;99.90;;;;;;5032321;28;20555;-61
2022/06/09 00:15:40;;;;;;;5.03;2.53;;;14.70;99.90;;;;;;5029206;28;20029;-60
2022/06/09 00:18:06;;;;;;;8.95;2.35;;;14.70;99.90;;;;;;5034005;28;20484;-61
2022/06/09 00:20:32;;;;;;;9.60;2.88;;;14.70;99.90;;;;;;5031522;28;20068;-60
2022/06/09 00:22:57;;;;;;;9.00;2.70;;;14.70;99.90;;;;;;5028340;28;20053;-60
2022/06/09 00:25:23;;;;;;;9.05;2.88;;;14.70;99.90;;;;;;5028585;28;20060;-60
2022/06/09 00:27:49;;;;;;;8.65;2.63;;;14.70;99.90;;;;;;5032196;28;20029;-61
2022/06/09 00:30:16;;;;;;;7.68;2.30;;;14.70;99.90;;;;;;5028398;28;20489;-60
2022/06/09 00:32:42;;;;;;;5.88;2.28;;;14.70;99.90;;;;;;5029567;28;20025;-60
2022/06/09 00:35:09;;;;;;;8.27;2.25;;;14.70;99.90;;;;;;5035128;28;20029;-61
2022/06/09 00:37:34;;;;;;;10.85;2.42;;;14.70;99.90;;;;;;5048908;28;20057;-61
2022/06/09 00:40:00;;;;;;;8.73;2.97;;;14.70;99.90;;;;;;5039890;28;20060;-60
2022/06/09 00:42:26;;;;;;;11.38;2.92;;;14.70;99.90;;;;;;5035770;28;20033;-61
2022/06/09 00:44:52;;;;;;;8.40;3.17;;;14.70;99.90;;;;;;5032474;28;20120;-61
2022/06/09 00:47:36;;;;;;;8.30;2.80;;;14.70;99.90;;;;;;5032398;28;20660;-61
2022/06/09 00:50:05;;;;;;;10.95;3.50;;;14.70;99.90;;;;;;5036674;28;20025;-61
2022/06/09 00:52:39;;;;;;;13.85;3.38;;;14.60;99.90;;;;;;5035669;28;20116;-60
2022/06/09 00:55:10;;;;;;;8.98;3.50;;;14.60;99.90;;;;;;5037272;28;20075;-61
2022/06/09 00:57:44;;;;;;;8.70;3.25;;;14.60;99.90;;;;;;5017422;28;20069;-61
2022/06/09 01:00:17;;;;;;;8.52;2.28;;;14.60;99.90;;;;;;5035561;28;20389;-61
2022/06/09 01:02:44;;;;;;;11.48;3.20;;;14.60;99.90;;;;;;5039143;28;20427;-60
2022/06/09 01:05:13;;;;;;;8.38;2.72;;;14.60;99.90;;;;;;5051886;28;20106;-60
2022/06/09 01:07:43;;;;;;;8.27;2.40;;;14.60;99.90;;;;;;5045499;28;20037;-60
2022/06/09 01:10:10;;;;;;;11.93;3.30;;;14.60;99.90;;;;;;5032041;28;20041;-60
2022/06/09 01:12:39;;;;;;;8.55;3.05;;;14.60;99.90;;;;;;5043199;28;20971;-60
2022/06/09 01:15:14;;;;;;;8.65;3.10;;;14.60;99.90;;;;;;5037823;28;20603;-60
2022/06/09 01:17:40;;;;;;;5.85;2.17;;;14.60;99.90;;;;;;5037340;28;20504;-61
2022/06/09 01:20:16;;;;;;;7.57;2.75;;;14.50;99.90;;;;;;5036801;28;20033;-61
2022/06/09 01:23:01;;;;;;;10.15;2.83;;;14.50;99.90;;;;;;5039940;28;20025;-61
2022/06/09 01:25:41;;;;;;;9.30;3.03;;;14.50;99.90;;;;;;5039556;28;20138;-60
2022/06/09 01:28:37;;;;;;;7.22;2.67;;;14.50;99.90;;;;;;5036842;28;20071;-60
2022/06/09 01:31:17;;;;;;;7.38;2.42;;;14.40;99.90;;;;;;5034171;28;20049;-60
2022/06/09 01:34:20;;;;;;;6.72;2.35;;;14.40;99.90;;;;;;5036327;28;20089;-60
2022/06/09 01:37:27;;;;;;;5.53;1.98;;;14.40;99.90;;;;;;5034272;28;20394;-61
2022/06/09 01:39:58;;;;;;;12.93;2.88;;;14.40;99.90;;;;;;5022508;28;20034;-60
2022/06/09 01:42:38;;;;;;;7.18;3.10;;;14.30;99.90;;;;;;5023653;28;20505;-60
2022/06/09 01:45:21;;;;;;;7.57;2.88;;;14.30;99.90;;;;;;5034229;28;20077;-60
2022/06/09 01:48:00;;;;;;;6.20;2.22;;;14.30;99.90;;;;;;5037401;28;20489;-61
2022/06/09 01:50:42;;;;;;;9.20;2.80;;;14.30;99.90;;;;;;5040054;28;20045;-61
2022/06/09 01:53:29;;;;;;;11.02;2.92;;;14.30;99.90;;;;;;5038083;28;20037;-60
2022/06/09 01:56:04;;;;;;;10.20;2.70;;;14.20;99.90;;;;;;5031068;28;20036;-60
2022/06/09 01:58:36;;;;;;;12.57;3.25;;;14.20;99.90;;;;;;5035071;28;20473;-61
2022/06/09 02:01:02;;;;;;;12.13;3.70;;;14.20;99.90;;;;;;5035030;28;20420;-60
2022/06/09 02:03:33;;;;;;;9.43;3.15;;;14.20;99.90;;;;;;5040251;28;20026;-61
2022/06/09 02:06:04;;;;;;;8.45;2.50;;;14.20;99.90;;;;;;5037188;28;20071;-60
2022/06/09 02:08:30;;;;;;;7.32;2.28;;;14.20;99.90;;;;;;5040579;28;20029;-61
2022/06/09 02:11:00;;;;;;;6.30;2.45;;;14.20;99.90;;;;;;5037116;28;20036;-61
2022/06/09 02:13:30;;;;;;;9.10;3.28;;;14.20;99.90;;;;;;5035982;28;20108;-61
2022/06/09 02:15:59;;;;;;;6.70;2.35;;;14.10;99.90;;;;;;5038767;28;20040;-61
2022/06/09 02:18:27;;;;;;;8.43;3.03;;;14.10;99.90;;;;;;5035987;28;20021;-61
2022/06/09 02:21:02;;;;;;;6.35;2.55;;;14.10;99.90;;;;;;5039359;28;20272;-61
2022/06/09 02:23:28;;;;;;;11.00;2.53;;;14.10;99.90;;;;;;5030628;28;20009;-61
2022/06/09 02:25:55;;;;;;;11.60;3.20;;;14.10;99.90;;;;;;5035372;28;20025;-61
2022/06/09 02:28:20;;;;;;;10.57;3.22;;;14.00;99.90;;;;;;5039337;28;20032;-61
2022/06/09 02:30:46;;;;;;;9.18;2.88;;;14.00;99.90;;;;;;5032942;28;20116;-60
2022/06/09 02:33:12;;;;;;;8.68;2.95;;;14.00;99.90;;;;;;5041036;28;20035;-61
2022/06/09 02:35:37;;;;;;;14.07;4.00;;;14.00;99.90;;;;;;5015575;28;20116;-60
2022/06/09 02:38:04;;;;;;;8.57;2.95;;;14.00;99.90;;;;;;5035886;28;20028;-60
2022/06/09 02:40:31;;;;;;;10.48;3.10;;;14.00;99.90;;;;;;5030168;28;20041;-61
2022/06/09 02:42:57;;;;;;;8.57;3.58;;;14.00;99.90;;;;;;5034405;28;20033;-60
2022/06/09 02:45:23;;;;;;;7.47;3.17;;;14.00;99.90;;;;;;5033536;28;20031;-60
2022/06/09 02:47:49;;;;;;;10.50;3.10;;;14.00;99.90;;;;;;5033992;28;20029;-61
2022/06/09 02:50:15;;;;;;;12.02;2.83;;;14.00;99.90;;;;;;5037983;28;20435;-60
2022/06/09 02:52:43;;;;;;;8.75;2.60;;;14.00;99.90;;;;;;5030043;28;20512;-61
2022/06/09 02:55:10;;;;;;;8.60;2.33;;;14.00;99.90;;;;;;5033673;28;20029;-60
2022/06/09 02:57:36;;;;;;;7.40;2.53;;;14.00;99.90;;;;;;5035619;28;20116;-60
2022/06/09 03:00:04;;;;;;;9.00;2.53;;;14.00;99.90;;;;;;5037497;28;20107;-60
2022/06/09 03:02:29;;;;;;;10.00;2.45;;;14.00;99.90;;;;;;5032125;28;20080;-60
2022/06/09 03:04:55;;;;;;;11.80;3.35;;;14.00;99.90;;;;;;5035385;28;20036;-60
2022/06/09 03:07:20;;;;;;;11.55;3.30;;;14.00;99.90;;;;;;5039120;28;20025;-60
2022/06/09 03:09:46;;;;;;;6.82;2.78;;;14.00;99.90;;;;;;5036737;28;20036;-60
2022/06/09 03:12:12;;;;;;;10.95;3.15;;;14.00;99.90;;;;;;5037148;28;20036;-60
2022/06/09 03:14:38;;;;;;;10.48;3.72;;;14.00;99.90;;;;;;5032096;28;20104;-60
2022/06/09 03:17:04;;;;;;;10.05;3.45;;;14.00;99.90;;;;;;5037649;28;20026;-60
2022/06/09 03:19:30;;;;;;;6.75;2.88;;;14.00;99.90;;;;;;5033380;28;20021;-60
2022/06/09 03:21:55;;;;;;;8.88;2.92;;;14.00;99.90;;;;;;5036028;28;20095;-60
2022/06/09 03:24:21;;;;;;;8.45;3.13;;;14.10;99.90;;;;;;5037700;28;20033;-61
2022/06/09 03:26:46;;;;;;;9.57;3.38;;;14.00;99.90;;;;;;5038171;28;20037;-60
2022/06/09 03:29:12;;;;;;;7.85;2.97;;;14.10;99.90;;;;;;5030013;28;20049;-60
2022/06/09 03:31:38;;;;;;;7.82;3.00;;;14.10;99.90;;;;;;5037608;28;20048;-60
2022/06/09 03:34:03;;;;;;;7.28;2.42;;;14.10;99.90;;;;;;5034926;28;20477;-60
2022/06/09 03:36:31;;;;;;;10.10;3.45;;;14.10;99.90;;;;;;5032701;28;20032;-60
2022/06/09 03:38:57;;;;;;;7.93;3.42;;;14.10;99.90;;;;;;5031959;28;20163;-60
2022/06/09 03:41:22;;;;;;;9.90;3.90;;;14.20;99.90;;;;;;5038815;28;20524;-60
2022/06/09 03:43:48;;;;;;;12.90;4.43;;;14.20;99.90;;;;;;5030386;28;20025;-60
2022/06/09 03:46:13;;;;;;;10.95;3.67;;;14.20;99.90;;;;;;5031518;28;20032;-60
2022/06/09 03:48:40;;;;;;;14.68;4.97;;;14.20;99.90;;;;;;5036285;28;20032;-60
2022/06/09 03:51:06;;;;;;;15.57;6.00;;;14.20;99.90;;;;;;5032132;28;20030;-60
2022/06/09 03:53:32;;;;;;;14.32;5.18;;;14.20;99.90;;;;;;5055964;28;20048;-60
2022/06/09 03:55:57;;;;;;;12.05;4.80;;;14.20;99.90;;;;;;5031285;28;20504;-60
2022/06/09 03:58:24;;;;;;;14.57;6.35;;;14.20;99.90;;;;;;5030238;28;20491;-60
2022/06/09 04:00:49;;;;;;;15.88;5.60;;;14.30;99.90;;;;;;5029451;28;20474;-61
2022/06/09 04:03:15;;;;;;;16.17;5.82;;;14.30;99.90;;;;;;5033993;28;20194;-60
2022/06/09 04:05:40;;;;;;;11.45;5.18;;;14.30;99.90;;;;;;5027347;28;20484;-60
2022/06/09 04:08:06;;;;;;;13.88;6.03;;;14.30;99.90;;;;;;5051844;28;20103;-60
2022/06/09 04:10:34;;;;;;;14.90;6.10;;;14.40;99.90;;;;;;5033655;28;20075;-60
2022/06/09 04:13:00;;;;;;;16.17;6.63;;;14.40;99.90;;;;;;5035599;28;20096;-60
2022/06/09 04:15:26;;;;;;;16.92;6.55;;;14.50;99.90;;;;;;5034117;28;20100;-60
2022/06/09 04:17:52;;;;;;;17.08;6.53;;;14.40;99.90;;;;;;5035111;28;20057;-60
2022/06/09 04:20:19;;;;;;;15.10;6.35;;;14.40;99.90;;;;;;5033909;28;20040;-60
2022/06/09 04:22:45;;;;;;;15.27;6.40;;;14.40;99.90;;;;;;5032750;28;20500;-60
2022/06/09 04:25:12;;;;;;;13.85;5.22;;;14.50;99.90;;;;;;5033902;28;20040;-60
2022/06/09 04:27:38;;;;;;;13.32;5.10;;;14.40;99.90;;;;;;5040152;28;20515;-60
2022/06/09 04:30:04;;;;;;;16.15;6.10;;;14.50;99.90;;;;;;5036565;28;20029;-60
2022/06/09 04:32:30;;;;;;;11.23;5.93;;;14.40;99.90;;;;;;5036552;28;20021;-60
2022/06/09 04:34:55;;;;;;;12.05;5.03;;;14.50;99.90;;;;;;5028832;28;20068;-61
2022/06/09 04:37:21;;;;;;;14.57;5.47;;;14.50;99.90;;;;;;5036144;28;20583;-60
2022/06/09 04:39:46;;;;;;;19.30;6.45;;;14.50;99.90;;;;;;5028676;28;20477;-60
2022/06/09 04:42:12;;;;;;;16.80;5.97;;;14.50;99.90;;;;;;5050219;28;20037;-60
2022/06/09 04:44:37;;;;;;;15.57;5.28;;;14.50;99.90;;;;;;5028759;28;20018;-60
2022/06/09 04:47:03;;;;;;;11.55;5.38;;;14.50;99.90;;;;;;5030261;28;20844;-60
2022/06/09 04:49:29;;;;;;;15.98;4.93;;;14.50;99.90;;;;;;5030005;28;20039;-60
2022/06/09 04:51:54;;;;;;;16.30;6.78;;;14.60;99.90;;;;;;5035994;28;20477;-60
2022/06/09 04:54:20;;;;;;;14.15;4.80;;;14.60;99.90;;;;;;5036209;28;20028;-60
2022/06/09 04:56:45;;;;;;;14.23;6.03;;;14.60;99.90;;;;;;5032315;28;20017;-60
2022/06/09 04:59:11;;;;;;;10.57;4.22;;;14.60;99.90;;;;;;5037829;28;20033;-60
2022/06/09 05:01:37;;;;;;;21.58;6.88;;;14.70;99.90;;;;;;5033519;28;20504;-60
2022/06/09 05:04:03;;;;;;;13.30;4.88;;;14.70;99.90;;;;;;5030891;28;20033;-60
2022/06/09 05:06:29;;;;;;;12.82;4.70;;;14.80;99.90;;;;;;5036155;28;20476;-60
2022/06/09 05:08:56;;;;;;;12.63;5.05;;;14.80;99.90;;;;;;5031909;28;20022;-60
2022/06/09 05:11:23;;;;;;;14.32;5.38;;;14.90;99.90;;;;;;5037163;28;20030;-60
2022/06/09 05:13:49;;;;;;;12.35;4.80;;;14.90;99.90;;;;;;5040036;28;20021;-60
2022/06/09 05:16:15;;;;;;;14.50;4.53;;;15.00;99.90;;;;;;5035703;28;20108;-60
2022/06/09 05:18:41;;;;;;;12.75;5.13;;;15.10;99.90;;;;;;5043264;28;20104;-61
2022/06/09 05:21:08;;;;;;;18.98;5.45;;;15.10;99.90;;;;;;5036611;28;20029;-60
2022/06/09 05:23:34;;;;;;;15.73;5.50;;;15.20;99.90;;;;;;5043019;28;20021;-60
2022/06/09 05:26:03;;;;;;;13.40;5.30;;;15.20;99.90;;;;;;5038751;28;20021;-60
2022/06/09 05:28:29;;;;;;;13.70;4.53;;;15.30;99.90;;;;;;5037891;28;20060;-60
2022/06/09 05:30:55;;;;;;;14.18;5.20;;;15.30;99.90;;;;;;5040755;28;20252;-61
2022/06/09 05:33:22;;;;;;;10.80;4.78;;;15.40;99.90;;;;;;5040200;28;20024;-60
2022/06/09 05:35:48;;;;;;;14.63;5.05;;;15.40;99.90;;;;;;5048231;28;20389;-60
2022/06/09 05:46:42;;;;;;;9.93;4.03;;;15.50;99.90;;;;;;5044433;28;20106;-61
2022/06/09 05:49:09;;;;;;;15.02;4.40;;;15.60;99.90;;;;;;5044697;28;20587;-60
2022/06/09 05:51:35;;;;;;;13.32;4.57;;;15.70;99.90;;;;;;5034969;28;20663;-60
2022/06/09 05:54:01;;;;;;;12.30;4.40;;;15.60;99.90;;;;;;5034799;28;20111;-61
2022/06/09 05:56:27;;;;;;;13.15;5.43;;;15.70;99.90;;;;;;5035476;28;20095;-60
2022/06/09 05:58:52;;;;;;;12.75;4.20;;;15.70;99.90;;;;;;5047284;28;20029;-61
2022/06/09 06:01:18;;;;;;;12.73;3.67;;;15.80;99.90;;;;;;5042340;28;20474;-60
2022/06/09 06:03:44;;;;;;;7.30;3.78;;;15.80;99.90;;;;;;5042178;28;20441;-60
2022/06/09 06:08:54;;;;;;;9.82;3.60;;;15.80;99.90;;;;;;5044467;28;20159;-61
2022/06/09 06:11:20;;;;;;;11.35;3.75;;;15.80;99.90;;;;;;5042802;28;20509;-61
2022/06/09 06:13:46;;;;;;;9.77;3.78;;;15.90;99.90;;;;;;5046915;28;20018;-61
2022/06/09 06:16:12;;;;;;;9.25;3.60;;;15.90;99.90;;;;;;5034200;28;20026;-60
2022/06/09 06:18:38;;;;;;;9.93;2.90;;;16.00;99.90;;;;;;5034294;28;20088;-61
2022/06/09 06:21:04;;;;;;;5.15;2.15;;;16.20;99.90;;;;;;5040282;28;20457;-61
2022/06/09 06:23:30;;;;;;;6.88;2.92;;;16.30;99.90;;;;;;5040370;28;20021;-61
2022/06/09 06:25:57;;;;;;;5.25;2.10;;;16.40;99.90;;;;;;5034454;28;20040;-60
2022/06/09 06:28:23;;;;;;;6.03;2.10;;;16.50;99.90;;;;;;5042435;28;20083;-60
2022/06/09 06:30:50;;;;;;;3.95;1.88;;;16.60;99.90;;;;;;5047823;28;20040;-61
2022/06/09 06:33:16;;;;;;;2.35;0.60;;;16.60;99.90;;;;;;5041671;28;20027;-60
2022/06/09 06:35:42;;;;;;;1.48;0.55;;;16.70;99.90;;;;;;5032713;28;20033;-60
2022/06/09 06:38:07;;;;;;;1.10;0.50;;;16.70;99.90;;;;;;5033087;28;20025;-60
2022/06/09 06:40:33;;;;;;;2.80;0.75;;;16.80;99.90;;;;;;5034109;28;20104;-60
2022/06/09 06:42:59;;;;;;;1.33;0.60;;;16.80;99.90;;;;;;5037336;28;20025;-60
2022/06/09 06:45:25;;;;;;;1.65;0.70;;;17.00;99.90;;;;;;5043789;28;20033;-61
2022/06/09 06:47:51;;;;;;;2.08;0.40;;;17.00;99.90;;;;;;5037437;28;20492;-60
2022/06/09 06:50:17;;;;;;;1.27;0.60;;;17.10;99.90;;;;;;5053919;28;20485;-60
2022/06/09 06:52:42;;;;;;;1.17;0.45;;;17.30;99.90;;;;;;5036263;28;20128;-60
2022/06/09 06:55:12;;;;;;;0.85;0.40;;;17.40;99.90;;;;;;5042447;28;20032;-61
2022/06/09 06:57:38;;;;;;;1.20;0.30;;;17.40;99.90;;;;;;5046012;28;20034;-60
2022/06/09 07:00:06;;;;;;;1.10;0.55;;;17.50;99.90;;;;;;5043175;28;20098;-61
2022/06/09 07:02:31;;;;;;;1.63;0.40;;;17.50;99.90;;;;;;5051176;28;20025;-60
2022/06/09 07:04:57;;;;;;;0.30;0.28;;;17.60;99.80;;;;;;5049146;28;20029;-60
2022/06/09 07:07:24;;;;;;;0.98;0.35;;;17.60;99.40;;;;;;5044113;28;20025;-61
2022/06/09 07:09:50;;;;;;;0.52;0.30;;;17.60;99.30;;;;;;5046838;28;20108;-61
2022/06/09 07:12:16;;;;;;;0.73;0.20;;;17.70;99.20;;;;;;5051454;28;20095;-60
2022/06/09 07:14:41;;;;;;;0.30;0.20;;;17.80;98.90;;;;;;5043149;28;20017;-60
2022/06/09 07:17:07;;;;;;;1.83;0.32;;;17.90;98.40;;;;;;5048852;28;20037;-60
2022/06/09 07:19:32;;;;;;;1.20;0.30;;;17.90;97.40;;;;;;5046968;28;20078;-61
2022/06/09 07:21:58;;;;;;;1.45;0.35;;;17.90;97.10;;;;;;5046666;28;20025;-60
2022/06/09 07:24:24;;;;;;;0.30;0.20;;;17.90;97.20;;;;;;5047295;28;20018;-61
2022/06/09 07:26:51;;;;;;;0.40;0.20;;;18.00;97.30;;;;;;5049176;28;20428;-60
2022/06/09 07:29:17;;;;;;;1.88;0.30;;;18.10;97.30;;;;;;5048439;28;20037;-60
2022/06/09 07:31:43;;;;;;;0.95;0.40;;;18.10;97.00;;;;;;5051016;28;20021;-60
2022/06/09 07:34:08;;;;;;;0.50;0.30;;;18.10;96.40;;;;;;5047124;28;20083;-61
2022/06/09 07:36:34;;;;;;;1.60;0.40;;;18.10;96.10;;;;;;5049774;28;20036;-60
2022/06/09 07:38:59;;;;;;;1.27;0.40;;;18.10;95.90;;;;;;5044476;28;20436;-60
2022/06/09 07:41:25;;;;;;;0.88;0.30;;;18.00;95.90;;;;;;5049892;28;20029;-60
2022/06/09 07:43:51;;;;;;;0.93;0.40;;;18.10;95.90;;;;;;5042381;28;20033;-60
2022/06/09 07:46:18;;;;;;;2.17;0.40;;;18.10;95.70;;;;;;5038906;28;20037;-61
2022/06/09 07:48:45;;;;;;;1.48;0.40;;;18.10;95.80;;;;;;5044725;28;20041;-60
2022/06/09 07:51:11;;;;;;;1.27;0.38;;;18.10;95.80;;;;;;5033110;28;20014;-60
2022/06/09 07:53:37;;;;;;;1.05;0.50;;;18.20;95.90;;;;;;5038176;28;20041;-61
2022/06/09 07:56:03;;;;;;;2.22;0.70;;;18.20;95.80;;;;;;5040787;28;20029;-60
2022/06/09 07:58:28;;;;;;;0.82;0.30;;;18.30;95.90;;;;;;5032317;28;20029;-61
2022/06/09 08:00:54;;;;;;;0.93;0.50;;;18.30;95.90;;;;;;5032143;28;20021;-60
2022/06/09 08:03:22;;;;;;;1.98;0.52;;;18.40;95.80;;;;;;5038838;28;20392;-61
2022/06/09 08:05:48;;;;;;;1.85;0.60;;;18.30;95.50;;;;;;5036008;28;20373;-60
2022/06/09 08:08:14;;;;;;;3.28;0.80;;;18.20;95.60;;;;;;5033588;28;20111;-60
2022/06/09 08:10:41;;;;;;;2.33;0.60;;;18.20;95.80;;;;;;5032345;28;20029;-60
2022/06/09 08:13:07;;;;;;;1.10;0.50;;;18.10;96.20;;;;;;5045703;28;20048;-61
2022/06/09 08:15:33;;;;;;;1.52;0.65;;;18.10;96.40;;;;;;5049481;28;20063;-60
2022/06/09 08:17:59;;;;;;;0.70;0.40;;;18.20;96.70;;;;;;5046612;28;20029;-60
2022/06/09 08:20:33;;;;;;;0.85;0.60;;;18.20;96.90;;;;;;5048278;28;20083;-61
2022/06/09 08:23:08;;;;;;;1.92;0.77;;;18.30;96.90;;;;;;5049404;28;20025;-61
2022/06/09 08:25:36;;;;;;;3.55;0.70;;;18.30;97.00;;;;;;5049621;28;20028;-60
2022/06/09 08:28:03;;;;;;;2.10;0.90;;;18.30;96.90;;;;;;5044575;28;20029;-60
2022/06/09 08:30:30;;;;;;;2.78;0.90;;;18.40;96.70;;;;;;5047986;28;20017;-61
2022/06/09 08:32:57;;;;;;;1.95;0.65;;;18.50;96.50;;;;;;5049136;28;20032;-61
2022/06/09 08:35:23;;;;;;;1.52;0.50;;;18.50;96.30;;;;;;5049664;28;20006;-61
2022/06/09 08:37:51;;;;;;;2.78;1.00;;;18.60;96.30;;;;;;5046167;28;20033;-61
2022/06/09 08:40:22;;;;;;;1.13;0.65;;;18.60;96.00;;;;;;5047896;28;20492;-60
2022/06/09 08:43:17;;;;;;;1.83;0.70;;;18.80;96.00;;;;;;5037482;28;20037;-61
2022/06/09 08:45:45;;;;;;;3.88;1.63;;;18.90;95.80;;;;;;5051879;28;20112;-61
2022/06/09 08:48:19;;;;;;;1.83;0.70;;;19.00;95.60;;;;;;5045052;28;20014;-61
2022/06/09 08:51:08;;;;;;;3.63;0.70;;;19.30;95.00;;;;;;5044754;28;20432;-60
2022/06/09 08:53:48;;;;;;;0.85;0.45;;;19.50;94.50;;;;;;5031583;28;20033;-60
2022/06/09 08:56:21;;;;;;;1.65;0.50;;;19.70;94.20;;;;;;5031879;28;20044;-61
2022/06/09 08:58:56;;;;;;;2.80;0.60;;;19.70;93.90;;;;;;5031558;28;20101;-60
2022/06/09 09:01:35;;;;;;;1.83;0.60;;;19.90;93.50;;;;;;5041753;28;20025;-60
2022/06/09 09:04:24;;;;;;;4.10;0.90;;;19.90;93.20;;;;;;5037941;28;20412;-61
2022/06/09 09:07:06;;;;;;;3.15;0.60;;;19.90;92.60;;;;;;5043191;28;20512;-61
2022/06/09 09:09:35;;;;;;;2.20;0.57;;;19.80;92.20;;;;;;5035350;28;20100;-60
2022/06/09 09:12:19;;;;;;;3.08;0.60;;;19.80;92.10;;;;;;5052767;28;20032;-60
2022/06/09 09:14:53;;;;;;;1.35;0.40;;;19.80;91.60;;;;;;5042099;28;20147;-60
2022/06/09 09:17:47;;;;;;;2.22;0.57;;;19.70;91.70;;;;;;5044035;28;20030;-60
2022/06/09 09:20:28;;;;;;;3.60;0.80;;;19.70;91.40;;;;;;5042242;28;20025;-60
2022/06/09 09:23:14;;;;;;;1.98;0.98;;;19.60;91.30;;;;;;5052625;28;20033;-60
2022/06/09 09:25:59;;;;;;;1.77;0.52;;;19.50;91.40;;;;;;5041613;28;20033;-61
2022/06/09 09:28:34;;;;;;;2.15;0.65;;;19.50;91.50;;;;;;5043508;28;20032;-61
2022/06/09 09:31:05;;;;;;;1.70;0.65;;;19.40;91.50;;;;;;5039816;28;20039;-61
2022/06/09 09:33:32;;;;;;;2.53;1.00;;;19.40;91.50;;;;;;5042910;28;20025;-60
2022/06/09 09:36:16;;;;;;;2.80;0.90;;;19.40;91.50;;;;;;5035044;28;20049;-61
2022/06/09 09:38:48;;;;;;;1.73;0.80;;;19.50;91.60;;;;;;5035191;28;20401;-60
2022/06/09 09:41:31;;;;;;;2.17;1.13;;;19.50;91.90;;;;;;5046371;28;20017;-60
2022/06/09 09:43:57;;;;;;;2.28;0.85;;;19.60;91.80;;;;;;5052440;28;20036;-60
2022/06/09 09:46:33;;;;;;;5.07;1.38;;;19.70;91.90;;;;;;5039899;28;20385;-60
2022/06/09 09:49:02;;;;;;;2.30;0.90;;;19.80;91.80;;;;;;5052729;28;20433;-60
2022/06/09 09:51:35;;;;;;;2.97;0.80;;;19.80;91.90;;;;;;5046537;28;20026;-60
2022/06/09 09:54:09;;;;;;;3.03;1.17;;;19.90;91.90;;;;;;5034381;28;20041;-60
2022/06/09 09:56:37;;;;;;;3.28;1.25;;;19.90;91.90;;;;;;5040272;28;20029;-60
2022/06/09 09:59:18;;;;;;;3.47;1.40;;;20.00;91.90;;;;;;5051018;28;20021;-60
2022/06/09 10:10:19;;;;;;;3.00;1.30;;;20.40;91.80;;;;;;5052741;28;20120;-60
2022/06/09 10:12:45;;;;;;;3.97;1.30;;;20.60;91.50;;;;;;5049648;28;20043;-60
2022/06/09 10:15:11;;;;;;;3.28;1.38;;;20.80;91.50;;;;;;5045870;28;20017;-61
2022/06/09 10:17:55;;;;;;;3.85;1.77;;;21.00;91.40;;;;;;5049076;28;20097;-61
2022/06/09 10:20:35;;;;;;;3.53;1.42;;;21.10;91.30;;;;;;5044375;28;20021;-60
2022/06/09 10:23:07;;;;;;;2.72;1.05;;;21.40;90.90;;;;;;5045942;28;20104;-60
2022/06/09 10:25:50;;;;;;;2.67;1.08;;;21.60;90.70;;;;;;5051927;28;20333;-60
2022/06/09 10:28:34;;;;;;;6.18;1.48;;;21.70;89.90;;;;;;5046364;28;20082;-60
2022/06/09 10:31:11;;;;;;;2.85;1.00;;;21.80;88.90;;;;;;5045108;28;20017;-61
2022/06/09 10:33:51;;;;;;;2.92;1.10;;;21.90;88.80;;;;;;5046358;28;20024;-61
2022/06/09 10:36:56;;;;;;;4.78;1.50;;;22.20;87.70;;;;;;5047222;28;20120;-61
2022/06/09 10:39:37;;;;;;;3.40;1.52;;;22.30;85.70;;;;;;5035771;28;20033;-60
2022/06/09 10:42:27;;;;;;;3.20;0.93;;;22.50;85.30;;;;;;5037022;28;20079;-60
2022/06/09 10:45:23;;;;;;;3.25;1.20;;;22.60;85.30;;;;;;5046283;28;20363;-61
2022/06/09 10:57:14;;;;;;;3.80;1.13;;;23.00;81.80;;;;;;5047157;28;20027;-60
2022/06/09 10:59:48;;;;;;;3.47;0.90;;;23.20;81.60;;;;;;5047040;28;20029;-60
2022/06/09 11:02:19;;;;;;;5.20;1.70;;;23.20;81.30;;;;;;5051706;28;20059;-60
2022/06/09 11:04:45;;;;;;;4.88;1.38;;;23.20;80.20;;;;;;5049025;28;20097;-60
2022/06/09 11:07:27;;;;;;;5.78;1.52;;;23.20;79.70;;;;;;5047707;28;20083;-60
2022/06/09 11:10:16;;;;;;;6.70;1.42;;;23.00;79.20;;;;;;5049400;28;20009;-60
2022/06/09 11:12:58;;;;;;;4.78;1.20;;;22.70;79.60;;;;;;5047332;28;20026;-60
2022/06/09 11:15:46;;;;;;;4.10;1.63;;;22.50;80.00;;;;;;5049171;28;20021;-61
2022/06/09 11:18:40;;;;;;;5.63;0.90;;;22.40;79.60;;;;;;5049342;28;20549;-60
2022/06/09 11:21:36;;;;;;;3.55;0.68;;;22.40;78.90;;;;;;5050585;28;20032;-60
2022/06/09 11:24:24;;;;;;;4.75;1.00;;;22.50;78.00;;;;;;5050632;28;20384;-60
2022/06/09 11:27:23;;;;;;;1.73;1.00;;;22.60;77.50;;;;;;5050027;28;20156;-60
2022/06/09 11:30:03;;;;;;;3.53;0.70;;;22.70;76.70;;;;;;5051355;28;20008;-60
2022/06/09 11:33:06;;;;;;;3.85;0.93;;;22.70;76.40;;;;;;5057829;28;20031;-60
2022/06/09 11:35:51;;;;;;;4.30;0.68;;;22.80;76.10;;;;;;5037905;28;20025;-60
2022/06/09 11:38:30;;;;;;;2.88;1.08;;;22.90;75.30;;;;;;5049221;28;20036;-60
2022/06/09 11:41:11;;;;;;;2.95;0.55;;;23.00;75.20;;;;;;5049751;28;20047;-60
2022/06/09 11:44:01;;;;;;;3.75;0.75;;;23.20;74.50;;;;;;5048770;28;20349;-60
2022/06/09 11:46:34;;;;;;;5.20;0.70;;;23.30;74.20;;;;;;5050048;28;20435;-60
2022/06/09 11:49:03;;;;;;;5.90;0.75;;;23.20;71.90;;;;;;5052476;28;20028;-60
2022/06/09 11:51:31;;;;;;;3.63;0.60;;;23.20;70.20;;;;;;5051830;28;20491;-60
2022/06/09 11:54:00;;;;;;;3.65;0.55;;;23.20;69.80;;;;;;5058724;28;20071;-60
2022/06/09 11:56:43;;;;;;;3.20;0.60;;;23.20;68.50;;;;;;5034447;28;20022;-60
2022/06/09 11:59:11;;;;;;;3.53;0.70;;;23.20;67.60;;;;;;5055892;28;20444;-61
2022/06/09 12:01:37;;;;;;;5.47;0.60;;;23.20;67.70;;;;;;5059886;28;20100;-60
2022/06/09 12:04:45;;;;;;;3.55;1.13;;;23.20;67.70;;;;;;5038677;28;20347;-61
2022/06/09 12:07:44;;;;;;;2.90;0.60;;;23.30;67.40;;;;;;5045556;28;20028;-61
2022/06/09 12:10:21;;;;;;;2.70;0.63;;;23.40;67.40;;;;;;5042148;28;20032;-61
2022/06/09 12:13:25;;;;;;;4.28;0.70;;;23.50;66.70;;;;;;5053542;28;20023;-61
2022/06/09 12:16:17;;;;;;;2.80;0.70;;;23.60;66.40;;;;;;5051206;28;20020;-60
2022/06/09 12:19:00;;;;;;;4.20;0.60;;;23.70;66.00;;;;;;5030316;28;20107;-60
2022/06/09 12:21:31;;;;;;;2.92;0.70;;;23.80;66.10;;;;;;5057565;28;20052;-60
2022/06/09 12:24:01;;;;;;;2.38;0.50;;;23.90;66.20;;;;;;5046444;28;20023;-60
2022/06/09 12:26:47;;;;;;;6.15;1.00;;;24.00;65.20;;;;;;5045337;28;20013;-60
2022/06/09 12:29:30;;;;;;;3.25;0.75;;;24.10;65.10;;;;;;5032948;28;20029;-61
2022/06/09 12:32:08;;;;;;;2.70;0.95;;;24.20;64.20;;;;;;5041145;28;20476;-60
2022/06/09 12:34:44;;;;;;;4.55;0.60;;;24.20;63.90;;;;;;5050225;28;20499;-60
2022/06/09 12:37:24;;;;;;;4.40;0.73;;;24.30;62.90;;;;;;5049041;28;20021;-61
2022/06/09 12:39:54;;;;;;;2.47;0.50;;;24.40;62.80;;;;;;5062581;28;20028;-60
2022/06/09 12:42:45;;;;;;;5.03;0.70;;;24.30;62.00;;;;;;5053129;28;20017;-60
2022/06/09 12:45:17;;;;;;;3.35;0.80;;;24.40;62.90;;;;;;5043669;28;20481;-60
2022/06/09 12:47:54;;;;;;;4.18;0.60;;;24.50;61.70;;;;;;5040296;28;20500;-60
2022/06/09 12:50:24;;;;;;;4.85;0.80;;;24.60;61.30;;;;;;5067840;28;20021;-60
2022/06/09 12:52:54;;;;;;;4.47;0.60;;;24.70;60.60;;;;;;5047439;28;20045;-60
2022/06/09 12:55:29;;;;;;;2.75;0.70;;;24.80;60.90;;;;;;5050179;28;20108;-60
2022/06/09 12:57:57;;;;;;;2.72;0.60;;;24.90;61.00;;;;;;5041828;28;20099;-60
2022/06/09 13:00:32;;;;;;;3.20;0.90;;;25.10;61.10;;;;;;5056996;28;20094;-60
2022/06/09 13:02:57;;;;;;;3.05;1.00;;;25.20;60.10;;;;;;5038571;28;20233;-60
2022/06/09 13:05:27;;;;;;;1.73;0.60;;;25.30;60.00;;;;;;5042592;28;20025;-61
2022/06/09 13:07:56;;;;;;;4.03;0.82;;;25.40;59.80;;;;;;5051932;28;20119;-61
2022/06/09 13:10:24;;;;;;;3.30;0.88;;;25.50;59.10;;;;;;5060330;28;20017;-61
2022/06/09 13:12:56;;;;;;;2.33;0.70;;;25.70;59.70;;;;;;5047157;28;20079;-60
2022/06/09 13:15:37;;;;;;;2.40;0.50;;;25.80;59.10;;;;;;5048986;28;20032;-61
2022/06/09 13:18:13;;;;;;;3.65;0.70;;;25.90;59.00;;;;;;5048204;28;20022;-61
2022/06/09 13:20:45;;;;;;;2.55;0.60;;;25.90;58.20;;;;;;5050650;28;20106;-61
2022/06/09 13:23:12;;;;;;;3.25;0.60;;;25.80;58.40;;;;;;5048235;28;20021;-61
2022/06/09 13:25:38;;;;;;;4.10;0.80;;;25.80;58.30;;;;;;5046102;28;20111;-61
2022/06/09 13:28:15;;;;;;;3.85;0.80;;;25.80;57.70;;;;;;5052245;28;20032;-61
2022/06/09 13:30:52;;;;;;;2.90;0.57;;;25.60;57.80;;;;;;5041460;28;20021;-61
2022/06/09 13:33:24;;;;;;;2.65;0.50;;;25.40;58.00;;;;;;5046759;28;20554;-61